Time;durP1;ratioP1;P1;durP2;ratioP2;P2;SDS_P1;SDS_P2;PMS_P1;PMS_P2;Temp;Humidity;BMP_temperature;BMP_pressure;BME280_temperature;BME280_humidity;BME280_pressure;Samples;Min_cycle;Max_cycle;Signal;HPM_P1;HPM_P2
2020/12/05 00:00:50;;;;;;;54.28;30.92;;;;;;;3.82;100.00;98100.69;5002407;28;20049;-65
2020/12/05 00:03:34;;;;;;;57.65;29.85;;;;;;;3.81;100.00;98099.03;5002253;28;20056;-66
2020/12/05 00:06:22;;;;;;;54.63;30.70;;;;;;;3.74;100.00;98092.75;5017032;28;20512;-66
2020/12/05 00:09:06;;;;;;;55.30;30.63;;;;;;;3.70;100.00;98094.00;5002097;28;20517;-66
2020/12/05 00:11:50;;;;;;;58.17;31.15;;;;;;;3.68;100.00;98093.34;5002380;28;20045;-66
2020/12/05 00:14:34;;;;;;;60.90;31.20;;;;;;;3.65;100.00;98093.66;5017139;28;20100;-66
2020/12/05 00:17:18;;;;;;;59.45;32.03;;;;;;;3.64;100.00;98097.28;5016693;28;20469;-66
2020/12/05 00:20:03;;;;;;;58.08;31.10;;;;;;;3.62;100.00;98109.75;5001969;28;20467;-66
2020/12/05 00:22:47;;;;;;;58.22;31.83;;;;;;;3.61;100.00;98113.38;5002009;28;20136;-66
2020/12/05 00:25:31;;;;;;;60.75;31.17;;;;;;;3.60;100.00;98119.63;5018426;28;20053;-66
2020/12/05 00:28:15;;;;;;;59.20;31.23;;;;;;;3.58;100.00;98114.53;5009076;28;20103;-66
2020/12/05 00:30:59;;;;;;;60.72;33.28;;;;;;;3.54;100.00;98120.25;5007840;28;20184;-66
2020/12/05 00:33:44;;;;;;;59.42;31.83;;;;;;;3.51;100.00;98123.16;5022564;28;20056;-66
2020/12/05 00:36:28;;;;;;;64.88;33.45;;;;;;;3.51;100.00;98120.53;5017872;28;20052;-66
2020/12/05 00:39:12;;;;;;;64.00;32.35;;;;;;;3.50;100.00;98130.25;5016623;28;20107;-66
2020/12/05 00:41:56;;;;;;;61.05;33.22;;;;;;;3.53;100.00;98131.75;5016659;28;20048;-65
2020/12/05 00:44:39;;;;;;;67.97;33.92;;;;;;;3.54;100.00;98130.78;5016481;28;20146;-65
2020/12/05 00:47:28;;;;;;;67.45;33.90;;;;;;;3.53;100.00;98137.84;5016483;28;20051;-65
2020/12/05 00:50:12;;;;;;;60.95;31.92;;;;;;;3.51;100.00;98131.06;5001945;28;20119;-66
2020/12/05 00:52:56;;;;;;;;;;;;;;;3.49;100.00;98131.22;5016734;28;20164;-66
2020/12/05 00:55:40;;;;;;;62.00;31.88;;;;;;;3.47;100.00;98132.34;5016373;28;19967;-66
2020/12/05 00:58:24;;;;;;;61.72;32.25;;;;;;;3.43;100.00;98126.56;4988048;28;20057;-66
2020/12/05 01:01:08;;;;;;;68.25;33.72;;;;;;;3.43;100.00;98137.09;5016027;28;20048;-66
2020/12/05 01:03:52;;;;;;;59.13;31.63;;;;;;;3.42;100.00;98138.06;5015974;28;20048;-65
2020/12/05 01:06:35;;;;;;;62.33;33.03;;;;;;;3.39;100.00;98150.72;5016093;28;20526;-65
2020/12/05 01:09:19;;;;;;;62.75;33.85;;;;;;;3.38;100.00;98154.31;5001216;28;20179;-66
2020/12/05 01:12:03;;;;;;;71.35;36.20;;;;;;;3.39;100.00;98155.97;5001495;28;20517;-66
2020/12/05 01:14:48;;;;;;;63.30;31.65;;;;;;;3.41;100.00;98164.56;5016038;28;20049;-66
2020/12/05 01:17:35;;;;;;;60.22;31.40;;;;;;;3.43;100.00;98162.63;5015517;28;20060;-66
2020/12/05 01:20:19;;;;;;;65.93;32.90;;;;;;;3.45;100.00;98172.00;5001158;28;20583;-66
2020/12/05 01:23:03;;;;;;;57.10;30.45;;;;;;;3.47;100.00;98171.84;5015903;28;20052;-66
2020/12/05 01:25:47;;;;;;;66.43;32.13;;;;;;;3.50;100.00;98179.44;5000610;28;20526;-65
2020/12/05 01:28:31;;;;;;;62.85;33.25;;;;;;;3.48;100.00;98181.41;5001169;28;20569;-65
2020/12/05 01:31:15;;;;;;;65.90;32.28;;;;;;;3.50;100.00;98182.09;5001125;28;20048;-66
2020/12/05 01:34:02;;;;;;;58.60;31.55;;;;;;;3.47;100.00;98187.66;5000532;28;20048;-64
2020/12/05 01:36:46;;;;;;;63.17;32.75;;;;;;;3.47;100.00;98195.56;5015369;28;20048;-65
2020/12/05 01:39:30;;;;;;;51.60;29.50;;;;;;;3.48;100.00;98186.69;5015566;28;20100;-65
2020/12/05 01:42:15;;;;;;;60.90;32.88;;;;;;;3.43;100.00;98189.75;5015508;28;20096;-65
2020/12/05 01:44:58;;;;;;;63.45;32.22;;;;;;;3.46;100.00;98191.28;5000384;28;20068;-66
2020/12/05 01:47:43;;;;;;;64.53;34.33;;;;;;;3.47;100.00;98187.66;5000263;28;20061;-66
2020/12/05 01:50:26;;;;;;;65.15;32.53;;;;;;;3.49;100.00;98198.88;5015254;28;20053;-66
2020/12/05 01:53:11;;;;;;;59.92;30.75;;;;;;;3.50;100.00;98195.25;5000240;28;20103;-65
2020/12/05 01:55:55;;;;;;;57.45;30.85;;;;;;;3.51;100.00;98202.19;5000299;28;20100;-66
2020/12/05 01:58:39;;;;;;;57.97;30.35;;;;;;;3.50;100.00;98213.69;5000124;28;20108;-66
2020/12/05 02:01:26;;;;;;;54.35;28.67;;;;;;;3.47;100.00;98220.09;5014928;28;20139;-65
2020/12/05 02:04:10;;;;;;;53.08;29.77;;;;;;;3.52;100.00;98220.47;4999314;28;20052;-65
2020/12/05 02:07:00;;;;;;;58.10;30.02;;;;;;;3.48;100.00;98215.66;4986128;28;20112;-66
2020/12/05 02:09:50;;;;;;;57.33;29.73;;;;;;;3.46;100.00;98226.31;5014587;28;20414;-65
2020/12/05 02:12:54;;;;;;;57.33;31.30;;;;;;;3.45;100.00;98223.88;5014669;28;20096;-65
2020/12/05 02:15:39;;;;;;;55.50;29.02;;;;;;;3.51;100.00;98234.63;4985929;28;20045;-66
2020/12/05 02:18:25;;;;;;;57.65;31.25;;;;;;;3.46;100.00;98238.69;4999745;28;20414;-66
2020/12/05 02:21:11;;;;;;;59.28;31.10;;;;;;;3.48;100.00;98239.34;4999938;28;20076;-66
2020/12/05 02:23:58;;;;;;;55.72;30.88;;;;;;;3.42;100.00;98247.84;5014765;28;20051;-65
2020/12/05 02:26:43;;;;;;;57.35;29.58;;;;;;;3.53;100.00;98259.00;4999766;28;20057;-64
2020/12/05 02:29:27;;;;;;;59.65;31.45;;;;;;;3.50;100.00;98264.59;4999716;28;20053;-66
2020/12/05 02:32:12;;;;;;;58.25;30.35;;;;;;;3.53;100.00;98279.25;5014612;28;20497;-66
2020/12/05 02:34:55;;;;;;;56.22;30.17;;;;;;;3.55;100.00;98282.56;5014537;28;20048;-65
2020/12/05 02:37:41;;;;;;;62.75;31.50;;;;;;;3.56;100.00;98284.22;4999419;28;20560;-65
2020/12/05 02:40:25;;;;;;;60.78;30.55;;;;;;;3.53;100.00;98287.16;5014454;28;20048;-66
2020/12/05 02:43:08;;;;;;;62.50;31.08;;;;;;;3.57;100.00;98283.25;5014172;28;20133;-65
2020/12/05 02:45:54;;;;;;;59.55;30.65;;;;;;;3.54;100.00;98288.81;4985914;28;20108;-66
2020/12/05 02:48:37;;;;;;;58.22;31.02;;;;;;;3.54;100.00;98302.00;4999205;28;20049;-65
2020/12/05 02:51:21;;;;;;;57.13;30.83;;;;;;;3.48;100.00;98302.56;4985513;28;20045;-65
2020/12/05 02:54:07;;;;;;;56.00;31.05;;;;;;;3.51;100.00;98310.16;5013200;28;20146;-66
2020/12/05 02:56:50;;;;;;;62.38;31.52;;;;;;;3.52;100.00;98319.72;4999253;28;20609;-66
2020/12/05 02:59:34;;;;;;;61.17;30.85;;;;;;;3.57;100.00;98328.03;4985351;28;20073;-65
2020/12/05 03:02:18;;;;;;;58.75;31.77;;;;;;;3.64;100.00;98344.91;4985207;28;20526;-66
2020/12/05 03:05:02;;;;;;;61.20;32.05;;;;;;;3.65;100.00;98357.13;5014115;28;20045;-66
2020/12/05 03:07:46;;;;;;;66.72;30.83;;;;;;;3.74;100.00;98375.50;5013657;28;20053;-66
2020/12/05 03:10:30;;;;;;;;;;;;;;;3.79;100.00;98380.31;5014354;28;20160;-66
2020/12/05 03:13:14;;;;;;;56.63;29.97;;;;;;;3.82;100.00;98393.19;5013696;28;19924;-65
2020/12/05 03:15:58;;;;;;;55.92;29.80;;;;;;;3.87;100.00;98383.06;4998855;28;20072;-66
2020/12/05 03:18:42;;;;;;;56.85;30.40;;;;;;;3.92;100.00;98381.63;5013572;28;20056;-65
2020/12/05 03:21:26;;;;;;;54.05;29.48;;;;;;;3.97;100.00;98384.63;5013788;28;20080;-66
2020/12/05 03:24:10;;;;;;;48.28;26.05;;;;;;;4.03;100.00;98383.22;4998914;28;20126;-67
2020/12/05 03:26:54;;;;;;;38.03;22.50;;;;;;;4.10;100.00;98369.31;4998724;28;20108;-67
2020/12/05 03:29:39;;;;;;;39.63;22.52;;;;;;;4.12;100.00;98374.41;5013744;28;20107;-65
2020/12/05 03:32:30;;;;;;;35.65;20.13;;;;;;;4.17;100.00;98380.06;5013714;28;20053;-65
2020/12/05 03:35:14;;;;;;;22.02;13.02;;;;;;;4.17;100.00;98391.44;5013727;28;20048;-66
2020/12/05 03:37:58;;;;;;;22.92;14.32;;;;;;;4.14;100.00;98398.81;5013396;28;20568;-64
2020/12/05 03:40:42;;;;;;;24.10;14.30;;;;;;;4.18;100.00;98421.28;5013460;28;20048;-66
2020/12/05 03:43:26;;;;;;;25.00;15.18;;;;;;;4.17;100.00;98422.28;5013642;28;20045;-64
2020/12/05 03:46:10;;;;;;;19.88;12.00;;;;;;;4.20;100.00;98424.59;5013501;28;20052;-67
2020/12/05 03:48:54;;;;;;;22.67;13.93;;;;;;;4.20;100.00;98403.50;5013525;28;20059;-67
2020/12/05 03:51:38;;;;;;;17.63;11.98;;;;;;;4.20;100.00;98391.16;4998429;28;20064;-67
2020/12/05 03:54:22;;;;;;;20.25;11.68;;;;;;;4.18;100.00;98398.38;5013264;28;20112;-67
2020/12/05 03:57:06;;;;;;;16.10;10.70;;;;;;;4.19;100.00;98380.75;4998567;28;20073;-65
2020/12/05 03:59:50;;;;;;;16.45;11.10;;;;;;;4.18;100.00;98379.91;4998425;28;20065;-67
2020/12/05 04:02:34;;;;;;;10.80;7.50;;;;;;;4.17;100.00;98393.25;5013496;28;20056;-65
2020/12/05 04:05:18;;;;;;;11.45;7.65;;;;;;;4.19;100.00;98391.31;5013436;28;20164;-65
2020/12/05 04:08:02;;;;;;;10.48;7.50;;;;;;;4.16;100.00;98395.06;5013116;28;20132;-65
2020/12/05 04:10:46;;;;;;;8.70;6.60;;;;;;;4.12;100.00;98413.97;4998425;28;20053;-66
2020/12/05 04:13:30;;;;;;;10.95;6.78;;;;;;;4.14;100.00;98433.09;4998450;28;20131;-66
2020/12/05 04:16:14;;;;;;;8.68;5.82;;;;;;;4.14;100.00;98433.09;5039940;22;20130;-68
2020/12/05 04:18:58;;;;;;;5.60;4.30;;;;;;;4.07;100.00;98437.31;5052648;28;20056;-68
2020/12/05 04:21:41;;;;;;;7.68;5.55;;;;;;;4.06;100.00;98459.38;5037853;28;20056;-68
2020/12/05 04:24:26;;;;;;;7.50;4.93;;;;;;;3.98;100.00;98469.84;5037868;28;20059;-68
2020/12/05 04:27:10;;;;;;;6.68;4.82;;;;;;;3.97;100.00;98457.63;5055053;28;20483;-67
2020/12/05 04:29:54;;;;;;;;;;;;;;;3.95;100.00;98465.66;5041855;28;20051;-68
2020/12/05 04:32:38;;;;;;;6.85;4.75;;;;;;;3.92;100.00;98462.50;5041500;28;20107;-68
2020/12/05 04:35:22;;;;;;;6.60;4.43;;;;;;;3.92;100.00;98434.34;5041453;28;20619;-68
2020/12/05 04:38:05;;;;;;;6.00;4.18;;;;;;;3.90;100.00;98432.81;5041226;28;20504;-68
2020/12/05 04:40:50;;;;;;;9.32;4.38;;;;;;;3.89;100.00;98439.91;5041012;28;20566;-67
2020/12/05 04:43:35;;;;;;;8.88;4.75;;;;;;;3.84;100.00;98441.34;5041032;28;20047;-68
2020/12/05 04:46:20;;;;;;;6.15;4.13;;;;;;;3.81;100.00;98431.91;5041381;28;20412;-68
2020/12/05 04:49:04;;;;;;;5.45;3.63;;;;;;;3.79;100.00;98440.94;5056217;28;20512;-68
2020/12/05 04:51:52;;;;;;;5.35;3.97;;;;;;;3.77;100.00;98466.59;5040912;28;20053;-68
2020/12/05 04:54:38;;;;;;;4.70;4.13;;;;;;;3.75;100.00;98497.53;5055903;28;20120;-68
2020/12/05 04:57:24;;;;;;;5.15;3.60;;;;;;;3.76;100.00;98517.66;5055743;28;20420;-68
2020/12/05 05:00:08;;;;;;;6.30;4.13;;;;;;;3.71;100.00;98540.94;5040631;28;20505;-67
2020/12/05 05:02:57;;;;;;;2.63;2.22;;;;;;;3.70;100.00;98553.31;5055694;28;20044;-68
2020/12/05 05:05:41;;;;;;;4.93;3.50;;;;;;;3.72;100.00;98568.97;5041017;28;20102;-68
2020/12/05 05:08:26;;;;;;;5.75;3.80;;;;;;;3.69;100.00;98591.19;5040499;28;20052;-68
2020/12/05 05:11:13;;;;;;;5.38;3.40;;;;;;;3.72;100.00;98600.56;5040665;28;20458;-68
2020/12/05 05:14:15;;;;;;;3.60;2.70;;;;;;;3.71;100.00;98594.50;5040534;28;20121;-69
2020/12/05 05:17:07;;;;;;;3.97;2.88;;;;;;;3.70;100.00;98587.56;5042993;28;20043;-68
2020/12/05 05:19:51;;;;;;;3.67;2.67;;;;;;;3.71;100.00;98588.38;5040329;28;20110;-68
2020/12/05 05:22:35;;;;;;;3.80;2.90;;;;;;;3.70;100.00;98590.19;5040488;28;20064;-69
2020/12/05 05:25:21;;;;;;;6.18;2.90;;;;;;;3.67;100.00;98582.56;5040531;28;20140;-67
2020/12/05 05:28:05;;;;;;;4.13;3.15;;;;;;;3.65;100.00;98570.53;5055273;28;20106;-68
2020/12/05 05:31:28;;;;;;;3.70;3.00;;;;;;;3.63;100.00;98577.72;5040264;28;20458;-68
2020/12/05 05:34:05;;;;;;;4.53;3.22;;;;;;;3.61;100.00;98569.97;5043696;28;20060;-68
2020/12/05 05:36:50;;;;;;;3.28;2.78;;;;;;;3.64;100.00;98580.22;5054918;28;20424;-67
2020/12/05 05:39:44;;;;;;;6.72;3.17;;;;;;;3.61;100.00;98577.03;5040296;28;20044;-68
2020/12/05 05:42:32;;;;;;;;;;;;;;;3.62;100.00;98595.34;5055726;28;20408;-68
2020/12/05 05:45:17;;;;;;;3.70;2.83;;;;;;;3.56;100.00;98584.53;5040107;28;19936;-68
2020/12/05 05:48:03;;;;;;;3.63;2.83;;;;;;;3.52;100.00;98596.31;5040006;28;20063;-68
2020/12/05 05:50:47;;;;;;;3.67;2.45;;;;;;;3.46;100.00;98600.34;5039629;28;20059;-68
2020/12/05 05:53:31;;;;;;;4.15;3.15;;;;;;;3.40;100.00;98611.44;5039959;28;20135;-68
2020/12/05 05:56:15;;;;;;;3.58;2.60;;;;;;;3.37;100.00;98597.72;5025608;28;20056;-69
2020/12/05 05:58:59;;;;;;;2.80;2.33;;;;;;;3.39;100.00;98624.75;5039767;28;20080;-68
2020/12/05 06:01:45;;;;;;;3.85;2.15;;;;;;;3.46;100.00;98636.41;5054592;28;20043;-68
2020/12/05 06:04:34;;;;;;;2.50;2.03;;;;;;;3.43;100.00;98636.69;5039775;28;20121;-68
2020/12/05 06:07:19;;;;;;;2.00;1.80;;;;;;;3.41;100.00;98649.13;5054543;28;20405;-68
2020/12/05 06:10:03;;;;;;;4.10;2.10;;;;;;;3.42;100.00;98658.69;5039258;28;20040;-67
2020/12/05 06:12:47;;;;;;;4.45;1.98;;;;;;;3.41;100.00;98671.06;5039401;28;20052;-68
2020/12/05 06:15:32;;;;;;;4.93;2.15;;;;;;;3.43;100.00;98678.84;5054600;28;20142;-68
2020/12/05 06:18:16;;;;;;;3.00;2.45;;;;;;;3.44;100.00;98676.03;5039062;28;20044;-68
2020/12/05 06:21:01;;;;;;;2.92;2.03;;;;;;;3.46;100.00;98668.00;5039452;28;20516;-68
2020/12/05 06:23:50;;;;;;;2.30;2.10;;;;;;;3.43;100.00;98650.69;5054458;28;20043;-67
2020/12/05 06:26:36;;;;;;;3.30;1.92;;;;;;;3.43;100.00;98663.03;5039237;28;20102;-68
2020/12/05 06:29:20;;;;;;;4.00;2.38;;;;;;;3.39;100.00;98651.09;5038917;28;20040;-68
2020/12/05 06:32:05;;;;;;;2.53;2.05;;;;;;;3.32;100.00;98655.22;5038917;28;20056;-68
2020/12/05 06:34:49;;;;;;;2.92;2.03;;;;;;;3.27;100.00;98676.75;5025533;28;20064;-68
2020/12/05 06:37:34;;;;;;;2.63;2.13;;;;;;;3.22;100.00;98684.19;5054121;28;20071;-68
2020/12/05 06:40:19;;;;;;;3.05;2.58;;;;;;;3.18;100.00;98692.50;5038800;28;20048;-68
2020/12/05 06:43:10;;;;;;;3.05;2.08;;;;;;;3.20;100.00;98701.09;5053839;28;20067;-68
2020/12/05 06:45:55;;;;;;;3.85;2.28;;;;;;;3.13;100.00;98703.44;5038672;28;20043;-68
2020/12/05 06:48:38;;;;;;;3.08;2.38;;;;;;;3.08;100.00;98691.66;5024194;28;20064;-68
2020/12/05 06:51:23;;;;;;;4.63;2.90;;;;;;;3.02;100.00;98686.94;5024785;28;20097;-68
2020/12/05 06:54:07;;;;;;;3.67;2.53;;;;;;;2.96;100.00;98690.13;5039133;28;20156;-67
2020/12/05 06:57:10;;;;;;;3.65;2.47;;;;;;;2.87;100.00;98712.81;5039251;28;20110;-68
2020/12/05 07:00:14;;;;;;;4.30;2.57;;;;;;;2.85;100.00;98706.81;5038504;28;20562;-68
2020/12/05 07:03:03;;;;;;;3.85;2.95;;;;;;;2.81;100.00;98717.75;5038471;28;20129;-68
2020/12/05 07:05:48;;;;;;;3.80;2.80;;;;;;;2.91;100.00;98740.53;5053685;28;20051;-68
2020/12/05 07:08:39;;;;;;;3.42;2.42;;;;;;;2.91;100.00;98750.19;5053408;28;20057;-68
2020/12/05 07:11:23;;;;;;;3.53;2.55;;;;;;;2.84;100.00;98738.56;5053307;28;20107;-68
2020/12/05 07:14:07;;;;;;;3.30;2.45;;;;;;;2.85;100.00;98748.13;5038563;28;20401;-68
2020/12/05 07:16:51;;;;;;;4.35;2.72;;;;;;;2.94;100.00;98760.47;5038320;28;20047;-68
2020/12/05 07:19:35;;;;;;;4.07;2.83;;;;;;;2.97;100.00;98774.22;5053267;28;20060;-68
2020/12/05 07:22:19;;;;;;;;;;;;;;;2.94;100.00;98784.16;5053620;28;20086;-68
2020/12/05 07:25:03;;;;;;;3.90;3.00;;;;;;;2.91;100.00;98763.34;5024225;28;20012;-68
2020/12/05 07:27:48;;;;;;;4.50;3.08;;;;;;;2.90;100.00;98759.91;5038061;28;20260;-68
2020/12/05 07:30:32;;;;;;;4.65;3.15;;;;;;;2.94;100.00;98776.28;5037932;28;20467;-67
2020/12/05 07:33:18;;;;;;;5.15;3.60;;;;;;;2.95;100.00;98767.41;5038350;28;20099;-68
2020/12/05 07:36:07;;;;;;;4.88;3.33;;;;;;;3.02;100.00;98779.09;5037956;28;20052;-69
2020/12/05 07:38:51;;;;;;;7.13;3.08;;;;;;;3.12;100.00;98786.03;5038131;28;20056;-68
2020/12/05 07:41:35;;;;;;;5.95;3.30;;;;;;;3.21;100.00;98811.56;5038005;28;20075;-68
2020/12/05 07:44:20;;;;;;;4.07;3.50;;;;;;;3.35;100.00;98815.63;5037920;28;20048;-68
2020/12/05 07:47:21;;;;;;;6.38;3.10;;;;;;;3.37;100.00;98792.63;5037913;28;20043;-68
2020/12/05 07:50:06;;;;;;;6.88;3.63;;;;;;;3.37;100.00;98788.19;5038113;28;20051;-68
2020/12/05 07:52:50;;;;;;;4.60;3.25;;;;;;;3.40;100.00;98789.69;5023847;28;20102;-68
2020/12/05 07:55:34;;;;;;;6.50;2.97;;;;;;;3.47;100.00;98802.19;5053095;28;20064;-68
2020/12/05 07:58:18;;;;;;;4.13;3.15;;;;;;;3.50;100.00;98790.56;5052784;28;20056;-68
2020/12/05 08:01:02;;;;;;;4.45;3.10;;;;;;;3.54;100.00;98813.06;5024624;28;20079;-68
2020/12/05 08:04:06;;;;;;;4.95;3.60;;;;;;;3.57;100.00;98810.13;5056828;28;20512;-68
2020/12/05 08:07:00;;;;;;;4.23;3.30;;;;;;;3.61;100.00;98808.88;5041917;28;20412;-68
2020/12/05 08:09:45;;;;;;;5.53;4.00;;;;;;;3.68;100.00;98818.78;5041705;28;20280;-68
2020/12/05 08:12:58;;;;;;;7.78;4.55;;;;;;;3.72;100.00;98833.31;5041938;28;20051;-68
2020/12/05 08:15:43;;;;;;;6.07;4.30;;;;;;;3.77;100.00;98814.47;5056577;28;20076;-68
2020/12/05 08:18:28;;;;;;;7.70;4.82;;;;;;;3.76;100.00;98811.00;5056857;28;20044;-68
2020/12/05 08:21:12;;;;;;;7.88;5.65;;;;;;;3.81;100.00;98816.69;5041685;28;20188;-68
2020/12/05 08:24:10;;;;;;;8.23;5.93;;;;;;;3.88;100.00;98832.78;5056742;28;20496;-68
2020/12/05 08:26:54;;;;;;;8.60;5.90;;;;;;;3.86;100.00;98829.47;5041367;28;20047;-68
2020/12/05 08:29:39;;;;;;;8.95;5.95;;;;;;;3.93;100.00;98833.19;5041285;28;20051;-68
2020/12/05 08:32:24;;;;;;;7.97;5.53;;;;;;;3.98;100.00;98839.72;5056825;28;20051;-68
2020/12/05 08:35:10;;;;;;;9.32;5.70;;;;;;;4.00;100.00;98831.69;5056748;28;20086;-69
2020/12/05 08:37:54;;;;;;;7.40;5.63;;;;;;;4.00;100.00;98832.53;5056169;28;20047;-68
2020/12/05 08:40:39;;;;;;;8.52;5.47;;;;;;;4.02;100.00;98835.00;5056423;28;20087;-68
2020/12/05 08:43:27;;;;;;;7.57;5.45;;;;;;;4.08;100.00;98839.75;5056111;28;20098;-67
2020/12/05 08:46:22;;;;;;;8.70;4.40;;;;;;;4.11;100.00;98823.63;5041121;28;20140;-68
2020/12/05 08:49:18;;;;;;;6.97;4.80;;;;;;;4.13;100.00;98816.41;5041214;28;20138;-69
2020/12/05 08:52:03;;;;;;;8.23;6.10;;;;;;;4.13;100.00;98819.06;5040803;28;20125;-67
2020/12/05 08:54:51;;;;;;;10.75;5.97;;;;;;;4.14;100.00;98826.00;5041122;28;20064;-68
2020/12/05 08:57:36;;;;;;;7.75;5.95;;;;;;;4.17;100.00;98841.56;5055849;28;20567;-68
2020/12/05 09:00:20;;;;;;;7.88;5.97;;;;;;;4.22;100.00;98837.53;5040534;28;20067;-68
2020/12/05 09:03:21;;;;;;;7.75;5.93;;;;;;;4.28;100.00;98833.50;5055768;28;20066;-68
2020/12/05 09:06:05;;;;;;;9.38;5.53;;;;;;;4.36;100.00;98831.81;5040342;28;20099;-69
2020/12/05 09:08:49;;;;;;;8.75;6.85;;;;;;;4.48;100.00;98845.72;5040355;28;20114;-68
2020/12/05 09:11:34;;;;;;;8.27;5.45;;;;;;;4.55;100.00;98849.44;5055446;28;20175;-68
2020/12/05 09:14:25;;;;;;;7.38;5.30;;;;;;;4.62;100.00;98861.09;5055451;28;20106;-68
2020/12/05 09:17:22;;;;;;;6.28;4.68;;;;;;;4.74;100.00;98849.41;5040470;28;20055;-67
2020/12/05 09:20:28;;;;;;;;;;;;;;;;;;;;;
2020/12/05 09:23:12;;;;;;;6.60;4.78;;;;;;;5.01;100.00;98853.78;5041884;28;20060;-68
2020/12/05 09:26:01;;;;;;;5.53;4.53;;;;;;;5.09;100.00;98866.28;5026200;28;20198;-68
2020/12/05 09:28:45;;;;;;;6.53;4.35;;;;;;;5.12;100.00;98872.09;5055375;28;20044;-68
2020/12/05 09:31:29;;;;;;;9.63;5.47;;;;;;;5.17;100.00;98875.16;5055543;28;20095;-68
2020/12/05 09:34:13;;;;;;;5.38;4.22;;;;;;;5.26;100.00;98894.59;5026044;28;20065;-68
2020/12/05 09:39:22;;;;;;;5.40;3.35;;;;;;;5.18;100.00;98892.66;5092002;27;20385;-67
2020/12/05 09:42:06;;;;;;;;;;;;;;;5.20;100.00;98888.06;5090138;28;20420;-68
2020/12/05 09:44:53;;;;;;;3.95;3.30;;;;;;;5.24;100.00;98894.72;5089697;28;19920;-68
2020/12/05 09:47:37;;;;;;;3.65;3.25;;;;;;;5.14;100.00;98888.63;5089682;28;20174;-67
2020/12/05 09:50:21;;;;;;;5.10;3.67;;;;;;;5.15;100.00;98882.38;5089763;28;20051;-67
2020/12/05 09:53:05;;;;;;;3.90;3.13;;;;;;;5.10;100.00;98881.13;5089538;28;20158;-67
2020/12/05 09:55:49;;;;;;;4.38;3.22;;;;;;;5.01;100.00;98874.91;5089370;28;20131;-68
2020/12/05 09:58:33;;;;;;;5.70;3.88;;;;;;;4.93;100.00;98881.91;5089258;28;20412;-68
2020/12/05 10:01:17;;;;;;;5.78;4.40;;;;;;;4.97;100.00;98883.25;5089131;28;20101;-67
2020/12/05 10:04:01;;;;;;;5.00;4.03;;;;;;;5.02;100.00;98895.06;5090343;28;20424;-68
2020/12/05 10:06:45;;;;;;;7.15;4.00;;;;;;;5.02;100.00;98896.88;5090358;28;20065;-68
2020/12/05 10:09:29;;;;;;;5.57;4.10;;;;;;;5.12;100.00;98902.97;5089423;28;20043;-68
2020/12/05 10:12:14;;;;;;;4.53;3.55;;;;;;;5.15;100.00;98900.03;5090586;28;20070;-67
2020/12/05 10:14:58;;;;;;;4.60;3.75;;;;;;;5.17;100.00;98887.53;5090280;28;20047;-67
2020/12/05 10:17:43;;;;;;;4.53;4.00;;;;;;;5.14;100.00;98899.19;5088756;28;20043;-66
2020/12/05 10:20:27;;;;;;;5.63;4.20;;;;;;;5.17;100.00;98917.44;5085352;22;20183;-66
2020/12/05 10:23:12;;;;;;;5.35;4.00;;;;;;;5.14;100.00;98919.50;5048708;28;20052;-66
2020/12/05 10:25:56;;;;;;;5.40;4.18;;;;;;;5.29;100.00;98900.41;5034503;28;20121;-66
2020/12/05 10:28:39;;;;;;;5.38;4.40;;;;;;;5.40;100.00;98902.03;5048563;28;20095;-66
2020/12/05 10:31:23;;;;;;;5.40;4.20;;;;;;;5.48;100.00;98910.94;5067372;28;20078;-66
2020/12/05 10:34:07;;;;;;;5.55;4.50;;;;;;;5.56;100.00;98911.00;5054893;28;20071;-66
2020/12/05 10:36:53;;;;;;;6.35;4.57;;;;;;;5.62;100.00;98917.53;5069328;28;20067;-66
2020/12/05 10:39:38;;;;;;;5.40;4.20;;;;;;;5.66;100.00;98922.38;5069661;28;20052;-66
2020/12/05 10:42:23;;;;;;;5.00;4.10;;;;;;;5.71;100.00;98911.38;5069450;28;20437;-66
2020/12/05 10:45:07;;;;;;;5.53;4.10;;;;;;;5.81;100.00;98897.16;5068641;28;20106;-66
2020/12/05 10:47:51;;;;;;;5.70;4.47;;;;;;;5.87;100.00;98909.78;5069101;28;20477;-66
2020/12/05 10:50:35;;;;;;;4.32;3.78;;;;;;;5.88;100.00;98924.69;5056721;28;20052;-66
2020/12/05 10:53:19;;;;;;;8.10;4.72;;;;;;;5.88;100.00;98914.13;5055821;28;20051;-65
2020/12/05 10:56:03;;;;;;;5.47;4.05;;;;;;;5.90;100.00;98912.16;5056090;28;20409;-65
2020/12/05 10:58:47;;;;;;;5.03;3.28;;;;;;;5.90;100.00;98909.50;5055696;28;20094;-66
2020/12/05 11:01:31;;;;;;;4.97;3.58;;;;;;;6.11;100.00;98915.38;5055570;28;20426;-65
2020/12/05 11:04:15;;;;;;;6.55;5.72;;;;;;;6.28;100.00;98919.81;5055915;28;20469;-66
2020/12/05 11:06:59;;;;;;;6.05;4.93;;;;;;;6.40;100.00;98909.88;5055501;28;20405;-66
2020/12/05 11:09:43;;;;;;;5.75;4.45;;;;;;;6.46;100.00;98915.38;5054473;28;20106;-65
2020/12/05 11:12:28;;;;;;;4.85;4.00;;;;;;;6.48;100.00;98910.75;5055486;28;20472;-66
2020/12/05 11:15:12;;;;;;;5.53;3.60;;;;;;;6.45;100.00;98924.31;5055436;28;20091;-66
2020/12/05 11:17:57;;;;;;;6.00;4.40;;;;;;;6.49;100.00;98930.97;5054608;28;20504;-66
2020/12/05 11:20:40;;;;;;;6.32;4.47;;;;;;;6.52;100.00;98929.81;5055189;28;20537;-66
2020/12/05 11:23:24;;;;;;;4.93;4.22;;;;;;;6.58;100.00;98935.34;5055294;28;20128;-66
2020/12/05 11:26:08;;;;;;;6.90;5.00;;;;;;;6.68;100.00;98941.41;5055245;28;20048;-66
2020/12/05 11:28:52;;;;;;;6.07;4.50;;;;;;;6.75;100.00;98933.72;5054418;28;20079;-66
2020/12/05 11:31:36;;;;;;;5.63;4.32;;;;;;;6.75;100.00;98931.06;5055103;28;20091;-65
2020/12/05 11:34:21;;;;;;;8.32;6.10;;;;;;;6.65;100.00;98925.81;5055412;28;20429;-66
2020/12/05 11:37:05;;;;;;;6.95;5.07;;;;;;;6.62;100.00;98935.88;5055121;28;20052;-66
2020/12/05 11:39:50;;;;;;;5.53;4.70;;;;;;;6.57;100.00;98923.09;5054945;28;20071;-66
2020/12/05 11:42:34;;;;;;;12.73;7.75;;;;;;;6.47;100.00;98930.28;5055200;28;20048;-66
2020/12/05 11:45:18;;;;;;;11.18;7.07;;;;;;;6.44;100.00;98930.59;5054832;28;20078;-65
2020/12/05 11:48:02;;;;;;;9.23;6.28;;;;;;;6.47;100.00;98927.63;5053832;28;20039;-65
2020/12/05 11:50:47;;;;;;;8.13;6.30;;;;;;;6.43;100.00;98918.34;5054588;28;20098;-64
2020/12/05 11:53:30;;;;;;;8.88;6.28;;;;;;;6.44;100.00;98920.00;5054040;28;20071;-64
2020/12/05 11:56:14;;;;;;;8.20;6.30;;;;;;;6.47;100.00;98921.53;5053962;28;20128;-64
2020/12/05 11:58:59;;;;;;;7.38;5.82;;;;;;;6.48;100.00;98916.06;5053817;28;20075;-64
2020/12/05 12:01:43;;;;;;;16.45;12.05;;;;;;;6.47;100.00;98916.22;5052588;28;20136;-64
2020/12/05 12:04:27;;;;;;;39.35;26.45;;;;;;;6.43;100.00;98910.41;5053513;28;20175;-64
2020/12/05 12:07:12;;;;;;;17.58;12.13;;;;;;;6.43;100.00;98914.84;5054677;28;20044;-64
2020/12/05 12:09:56;;;;;;;38.25;24.33;;;;;;;6.40;100.00;98918.66;5054535;28;20052;-64
2020/12/05 12:12:42;;;;;;;44.85;25.65;;;;;;;6.40;100.00;98918.66;5054397;28;20044;-64
2020/12/05 12:15:26;;;;;;;60.80;32.40;;;;;;;6.38;100.00;98910.00;5053523;28;20083;-66
2020/12/05 12:18:09;;;;;;;14.68;9.80;;;;;;;6.43;100.00;98918.34;5039093;28;20103;-64
2020/12/05 12:20:53;;;;;;;6.18;5.20;;;;;;;6.45;100.00;98929.59;5053364;28;20048;-64
2020/12/05 12:23:38;;;;;;;6.35;4.60;;;;;;;6.46;100.00;98925.97;5054441;28;20052;-64
2020/12/05 12:26:27;;;;;;;7.93;5.72;;;;;;;6.47;100.00;98922.34;5054354;28;20052;-64
2020/12/05 12:29:11;;;;;;;8.75;5.82;;;;;;;6.41;100.00;98916.81;5053006;28;20055;-64
2020/12/05 12:31:55;;;;;;;8.02;6.28;;;;;;;6.44;100.00;98911.22;5053190;28;20052;-64
2020/12/05 12:34:39;;;;;;;8.68;6.65;;;;;;;6.37;100.00;98916.28;5054157;28;20104;-64
2020/12/05 12:37:23;;;;;;;9.88;6.47;;;;;;;6.37;100.00;98915.47;5053842;28;20072;-64
2020/12/05 12:40:07;;;;;;;;;;;;;;;6.34;100.00;98923.72;5054315;28;20520;-64
2020/12/05 12:42:51;;;;;;;7.68;5.78;;;;;;;6.29;100.00;98924.16;5054058;28;19965;-64
2020/12/05 12:45:36;;;;;;;6.43;5.35;;;;;;;6.38;100.00;98915.28;5052782;28;20051;-64
2020/12/05 12:51:08;;;;;;;24.20;17.63;;;;;;;6.70;99.79;98923.56;5053771;28;20083;-64
2020/12/05 12:53:52;;;;;;;15.52;11.98;;;;;;;7.08;97.82;98922.38;5053885;28;20137;-64
2020/12/05 12:56:38;;;;;;;9.65;7.28;;;;;;;7.21;94.92;98910.38;5053545;28;20048;-64
2020/12/05 12:59:23;;;;;;;7.57;4.93;;;;;;;6.96;94.54;98897.13;5053365;28;20087;-64
2020/12/05 13:02:07;;;;;;;8.52;6.13;;;;;;;7.08;92.74;98901.19;5053497;28;20047;-64